sensor_id;sensor_type;location;lat;lon;timestamp;P1;durP1;ratioP1;P2;durP2;ratioP2
15996;SDS011;8103;51.340;12.326;2024-02-26T00:00:25;12.00;;;8.98;;
15996;SDS011;8103;51.340;12.326;2024-02-26T00:02:52;14.02;;;9.50;;
15996;SDS011;8103;51.340;12.326;2024-02-26T00:05:19;9.75;;;7.65;;
15996;SDS011;8103;51.340;12.326;2024-02-26T00:07:46;13.00;;;9.50;;
15996;SDS011;8103;51.340;12.326;2024-02-26T00:10:13;14.15;;;9.38;;
15996;SDS011;8103;51.340;12.326;2024-02-26T00:12:40;14.73;;;9.40;;
15996;SDS011;8103;51.340;12.326;2024-02-26T00:15:07;19.02;;;10.23;;
15996;SDS011;8103;51.340;12.326;2024-02-26T00:17:35;12.23;;;9.75;;
15996;SDS011;8103;51.340;12.326;2024-02-26T00:20:03;16.75;;;10.25;;
15996;SDS011;8103;51.340;12.326;2024-02-26T00:22:34;12.63;;;9.30;;
15996;SDS011;8103;51.340;12.326;2024-02-26T00:25:01;12.43;;;8.85;;
15996;SDS011;8103;51.340;12.326;2024-02-26T00:27:28;12.15;;;9.57;;
15996;SDS011;8103;51.340;12.326;2024-02-26T00:29:55;14.10;;;9.52;;
15996;SDS011;8103;51.340;12.326;2024-02-26T00:32:22;16.58;;;10.88;;
15996;SDS011;8103;51.340;12.326;2024-02-26T00:34:48;14.25;;;9.15;;
15996;SDS011;8103;51.340;12.326;2024-02-26T00:37:15;16.52;;;11.52;;
15996;SDS011;8103;51.340;12.326;2024-02-26T00:39:41;14.02;;;9.98;;
15996;SDS011;8103;51.340;12.326;2024-02-26T00:42:08;13.95;;;11.00;;
15996;SDS011;8103;51.340;12.326;2024-02-26T00:44:35;14.52;;;9.45;;
15996;SDS011;8103;51.340;12.326;2024-02-26T00:47:02;14.55;;;10.07;;
15996;SDS011;8103;51.340;12.326;2024-02-26T00:49:28;16.65;;;9.80;;
15996;SDS011;8103;51.340;12.326;2024-02-26T00:51:55;12.88;;;9.07;;
15996;SDS011;8103;51.340;12.326;2024-02-26T00:54:22;19.45;;;11.27;;
15996;SDS011;8103;51.340;12.326;2024-02-26T00:56:49;14.40;;;10.45;;
15996;SDS011;8103;51.340;12.326;2024-02-26T00:59:16;15.70;;;10.15;;
15996;SDS011;8103;51.340;12.326;2024-02-26T01:01:42;12.98;;;9.60;;
15996;SDS011;8103;51.340;12.326;2024-02-26T01:04:09;13.52;;;9.80;;
15996;SDS011;8103;51.340;12.326;2024-02-26T01:06:36;12.48;;;9.40;;
15996;SDS011;8103;51.340;12.326;2024-02-26T01:09:02;13.25;;;9.55;;
15996;SDS011;8103;51.340;12.326;2024-02-26T01:11:29;13.05;;;9.40;;
15996;SDS011;8103;51.340;12.326;2024-02-26T01:13:56;15.15;;;9.68;;
15996;SDS011;8103;51.340;12.326;2024-02-26T01:16:23;12.60;;;9.68;;
15996;SDS011;8103;51.340;12.326;2024-02-26T01:18:50;13.57;;;9.98;;
15996;SDS011;8103;51.340;12.326;2024-02-26T01:21:17;15.88;;;10.13;;
15996;SDS011;8103;51.340;12.326;2024-02-26T01:23:43;14.43;;;10.32;;
15996;SDS011;8103;51.340;12.326;2024-02-26T01:26:11;14.55;;;9.70;;
15996;SDS011;8103;51.340;12.326;2024-02-26T01:28:38;15.18;;;10.75;;
15996;SDS011;8103;51.340;12.326;2024-02-26T01:31:04;14.98;;;10.23;;
15996;SDS011;8103;51.340;12.326;2024-02-26T01:33:33;14.63;;;10.50;;
15996;SDS011;8103;51.340;12.326;2024-02-26T01:36:00;15.68;;;11.07;;
15996;SDS011;8103;51.340;12.326;2024-02-26T01:38:27;14.80;;;10.32;;
15996;SDS011;8103;51.340;12.326;2024-02-26T01:40:54;15.52;;;11.70;;
15996;SDS011;8103;51.340;12.326;2024-02-26T01:43:21;19.63;;;12.32;;
15996;SDS011;8103;51.340;12.326;2024-02-26T01:45:47;17.33;;;11.73;;
15996;SDS011;8103;51.340;12.326;2024-02-26T01:48:14;16.10;;;11.48;;
15996;SDS011;8103;51.340;12.326;2024-02-26T01:50:41;15.15;;;11.45;;
15996;SDS011;8103;51.340;12.326;2024-02-26T01:53:08;16.10;;;10.95;;
15996;SDS011;8103;51.340;12.326;2024-02-26T01:55:35;15.30;;;10.43;;
15996;SDS011;8103;51.340;12.326;2024-02-26T01:58:02;17.42;;;11.60;;
15996;SDS011;8103;51.340;12.326;2024-02-26T02:00:29;14.07;;;10.98;;
15996;SDS011;8103;51.340;12.326;2024-02-26T02:02:57;17.70;;;11.48;;
15996;SDS011;8103;51.340;12.326;2024-02-26T02:05:24;16.80;;;11.65;;
15996;SDS011;8103;51.340;12.326;2024-02-26T02:07:52;16.25;;;10.82;;
15996;SDS011;8103;51.340;12.326;2024-02-26T02:10:19;14.93;;;10.32;;
15996;SDS011;8103;51.340;12.326;2024-02-26T02:12:51;16.02;;;11.15;;
15996;SDS011;8103;51.340;12.326;2024-02-26T02:15:18;14.43;;;9.95;;
15996;SDS011;8103;51.340;12.326;2024-02-26T02:17:45;14.65;;;10.90;;
15996;SDS011;8103;51.340;12.326;2024-02-26T02:20:15;15.70;;;11.05;;
15996;SDS011;8103;51.340;12.326;2024-02-26T02:22:46;13.52;;;10.05;;
15996;SDS011;8103;51.340;12.326;2024-02-26T02:25:13;14.93;;;10.88;;
15996;SDS011;8103;51.340;12.326;2024-02-26T02:27:40;15.10;;;10.27;;
15996;SDS011;8103;51.340;12.326;2024-02-26T02:30:08;13.32;;;10.98;;
15996;SDS011;8103;51.340;12.326;2024-02-26T02:32:37;15.65;;;11.48;;
15996;SDS011;8103;51.340;12.326;2024-02-26T02:35:07;15.88;;;10.27;;
15996;SDS011;8103;51.340;12.326;2024-02-26T02:37:33;12.68;;;9.40;;
15996;SDS011;8103;51.340;12.326;2024-02-26T02:40:00;18.63;;;11.20;;
15996;SDS011;8103;51.340;12.326;2024-02-26T02:42:27;16.30;;;11.15;;
15996;SDS011;8103;51.340;12.326;2024-02-26T02:44:54;13.82;;;9.63;;
15996;SDS011;8103;51.340;12.326;2024-02-26T02:47:20;15.02;;;10.45;;
15996;SDS011;8103;51.340;12.326;2024-02-26T02:49:47;11.60;;;9.45;;
15996;SDS011;8103;51.340;12.326;2024-02-26T02:52:14;12.32;;;9.55;;
15996;SDS011;8103;51.340;12.326;2024-02-26T02:54:40;14.55;;;10.85;;
15996;SDS011;8103;51.340;12.326;2024-02-26T02:57:08;15.60;;;10.50;;
15996;SDS011;8103;51.340;12.326;2024-02-26T02:59:37;15.27;;;11.15;;
15996;SDS011;8103;51.340;12.326;2024-02-26T03:02:04;14.05;;;9.85;;
15996;SDS011;8103;51.340;12.326;2024-02-26T03:04:31;16.25;;;11.48;;
15996;SDS011;8103;51.340;12.326;2024-02-26T03:06:58;17.00;;;11.30;;
15996;SDS011;8103;51.340;12.326;2024-02-26T03:09:24;14.07;;;9.73;;
15996;SDS011;8103;51.340;12.326;2024-02-26T03:11:51;15.68;;;10.07;;
15996;SDS011;8103;51.340;12.326;2024-02-26T03:14:18;13.10;;;10.18;;
15996;SDS011;8103;51.340;12.326;2024-02-26T03:16:45;16.38;;;10.45;;
15996;SDS011;8103;51.340;12.326;2024-02-26T03:19:14;16.95;;;12.07;;
15996;SDS011;8103;51.340;12.326;2024-02-26T03:21:42;14.13;;;9.98;;
15996;SDS011;8103;51.340;12.326;2024-02-26T03:24:08;12.93;;;9.60;;
15996;SDS011;8103;51.340;12.326;2024-02-26T03:26:36;14.43;;;10.60;;
15996;SDS011;8103;51.340;12.326;2024-02-26T03:29:04;14.90;;;9.80;;
15996;SDS011;8103;51.340;12.326;2024-02-26T03:31:31;13.10;;;9.73;;
15996;SDS011;8103;51.340;12.326;2024-02-26T03:33:58;13.30;;;9.25;;
15996;SDS011;8103;51.340;12.326;2024-02-26T03:36:24;14.23;;;9.13;;
15996;SDS011;8103;51.340;12.326;2024-02-26T03:38:52;12.32;;;9.07;;
15996;SDS011;8103;51.340;12.326;2024-02-26T03:41:18;13.82;;;9.32;;
15996;SDS011;8103;51.340;12.326;2024-02-26T03:43:45;13.85;;;9.32;;
15996;SDS011;8103;51.340;12.326;2024-02-26T03:46:11;11.57;;;9.02;;
15996;SDS011;8103;51.340;12.326;2024-02-26T03:48:40;14.30;;;10.25;;
15996;SDS011;8103;51.340;12.326;2024-02-26T03:51:08;12.75;;;9.32;;
15996;SDS011;8103;51.340;12.326;2024-02-26T03:53:36;14.50;;;9.73;;
15996;SDS011;8103;51.340;12.326;2024-02-26T03:56:03;14.98;;;10.98;;
15996;SDS011;8103;51.340;12.326;2024-02-26T03:58:31;15.90;;;11.77;;
15996;SDS011;8103;51.340;12.326;2024-02-26T04:00:59;14.63;;;11.55;;
15996;SDS011;8103;51.340;12.326;2024-02-26T04:03:26;14.48;;;10.65;;
15996;SDS011;8103;51.340;12.326;2024-02-26T04:05:53;16.70;;;11.13;;
15996;SDS011;8103;51.340;12.326;2024-02-26T04:08:20;16.77;;;12.10;;
15996;SDS011;8103;51.340;12.326;2024-02-26T04:10:46;18.83;;;13.50;;
15996;SDS011;8103;51.340;12.326;2024-02-26T04:13:13;18.05;;;13.25;;
15996;SDS011;8103;51.340;12.326;2024-02-26T04:15:39;17.02;;;13.10;;
15996;SDS011;8103;51.340;12.326;2024-02-26T04:18:06;19.50;;;13.82;;
15996;SDS011;8103;51.340;12.326;2024-02-26T04:20:33;21.75;;;14.88;;
15996;SDS011;8103;51.340;12.326;2024-02-26T04:22:59;21.23;;;14.02;;
15996;SDS011;8103;51.340;12.326;2024-02-26T04:25:26;20.13;;;14.30;;
15996;SDS011;8103;51.340;12.326;2024-02-26T04:27:54;20.77;;;15.05;;
15996;SDS011;8103;51.340;12.326;2024-02-26T04:30:21;20.88;;;14.23;;
15996;SDS011;8103;51.340;12.326;2024-02-26T04:32:48;21.70;;;14.32;;
15996;SDS011;8103;51.340;12.326;2024-02-26T04:35:14;27.00;;;16.88;;
15996;SDS011;8103;51.340;12.326;2024-02-26T04:37:41;23.38;;;16.70;;
15996;SDS011;8103;51.340;12.326;2024-02-26T04:40:08;21.90;;;15.70;;
15996;SDS011;8103;51.340;12.326;2024-02-26T04:42:35;21.88;;;15.80;;
15996;SDS011;8103;51.340;12.326;2024-02-26T04:45:01;26.65;;;17.67;;
15996;SDS011;8103;51.340;12.326;2024-02-26T04:47:28;24.45;;;16.55;;
15996;SDS011;8103;51.340;12.326;2024-02-26T04:49:56;29.38;;;17.35;;
15996;SDS011;8103;51.340;12.326;2024-02-26T04:52:22;22.73;;;17.48;;
15996;SDS011;8103;51.340;12.326;2024-02-26T04:54:49;23.98;;;18.98;;
15996;SDS011;8103;51.340;12.326;2024-02-26T04:57:16;25.65;;;18.13;;
15996;SDS011;8103;51.340;12.326;2024-02-26T04:59:44;24.80;;;16.95;;
15996;SDS011;8103;51.340;12.326;2024-02-26T05:02:12;31.88;;;19.85;;
15996;SDS011;8103;51.340;12.326;2024-02-26T05:04:39;30.38;;;17.88;;
15996;SDS011;8103;51.340;12.326;2024-02-26T05:07:06;27.23;;;18.50;;
15996;SDS011;8103;51.340;12.326;2024-02-26T05:09:34;24.25;;;17.60;;
15996;SDS011;8103;51.340;12.326;2024-02-26T05:12:01;26.38;;;18.05;;
15996;SDS011;8103;51.340;12.326;2024-02-26T05:14:28;30.58;;;20.05;;
15996;SDS011;8103;51.340;12.326;2024-02-26T05:16:54;26.33;;;16.30;;
15996;SDS011;8103;51.340;12.326;2024-02-26T05:19:22;27.48;;;17.02;;
15996;SDS011;8103;51.340;12.326;2024-02-26T05:21:49;25.73;;;17.98;;
15996;SDS011;8103;51.340;12.326;2024-02-26T05:24:16;25.92;;;17.20;;
15996;SDS011;8103;51.340;12.326;2024-02-26T05:26:44;28.63;;;19.80;;
15996;SDS011;8103;51.340;12.326;2024-02-26T05:29:11;25.45;;;17.95;;
15996;SDS011;8103;51.340;12.326;2024-02-26T05:31:38;25.63;;;17.48;;
15996;SDS011;8103;51.340;12.326;2024-02-26T05:34:09;27.17;;;18.63;;
15996;SDS011;8103;51.340;12.326;2024-02-26T05:36:36;24.73;;;16.98;;
15996;SDS011;8103;51.340;12.326;2024-02-26T05:39:03;22.33;;;17.42;;
15996;SDS011;8103;51.340;12.326;2024-02-26T05:41:30;24.27;;;16.55;;
15996;SDS011;8103;51.340;12.326;2024-02-26T05:43:56;21.77;;;16.85;;
15996;SDS011;8103;51.340;12.326;2024-02-26T05:46:23;27.27;;;18.02;;
15996;SDS011;8103;51.340;12.326;2024-02-26T05:48:50;28.02;;;16.25;;
15996;SDS011;8103;51.340;12.326;2024-02-26T05:51:18;26.85;;;17.40;;
15996;SDS011;8103;51.340;12.326;2024-02-26T05:53:45;23.95;;;16.58;;
15996;SDS011;8103;51.340;12.326;2024-02-26T05:56:13;27.02;;;18.05;;
15996;SDS011;8103;51.340;12.326;2024-02-26T05:58:40;29.30;;;18.52;;
15996;SDS011;8103;51.340;12.326;2024-02-26T06:01:06;23.05;;;15.93;;
15996;SDS011;8103;51.340;12.326;2024-02-26T06:03:33;24.17;;;16.77;;
15996;SDS011;8103;51.340;12.326;2024-02-26T06:06:00;21.27;;;16.02;;
15996;SDS011;8103;51.340;12.326;2024-02-26T06:08:27;25.10;;;16.38;;
15996;SDS011;8103;51.340;12.326;2024-02-26T06:10:53;25.88;;;15.93;;
15996;SDS011;8103;51.340;12.326;2024-02-26T06:13:20;23.85;;;16.63;;
15996;SDS011;8103;51.340;12.326;2024-02-26T06:15:47;18.52;;;14.40;;
15996;SDS011;8103;51.340;12.326;2024-02-26T06:18:13;22.52;;;14.90;;
15996;SDS011;8103;51.340;12.326;2024-02-26T06:20:40;25.52;;;17.95;;
15996;SDS011;8103;51.340;12.326;2024-02-26T06:23:07;25.20;;;16.42;;
15996;SDS011;8103;51.340;12.326;2024-02-26T06:25:33;23.15;;;15.55;;
15996;SDS011;8103;51.340;12.326;2024-02-26T06:28:00;23.23;;;16.00;;
15996;SDS011;8103;51.340;12.326;2024-02-26T06:30:27;21.95;;;16.50;;
15996;SDS011;8103;51.340;12.326;2024-02-26T06:32:53;21.25;;;15.10;;
15996;SDS011;8103;51.340;12.326;2024-02-26T06:35:20;24.75;;;15.80;;
15996;SDS011;8103;51.340;12.326;2024-02-26T06:37:47;22.58;;;15.43;;
15996;SDS011;8103;51.340;12.326;2024-02-26T06:40:17;20.38;;;14.85;;
15996;SDS011;8103;51.340;12.326;2024-02-26T06:42:44;21.95;;;14.13;;
15996;SDS011;8103;51.340;12.326;2024-02-26T06:45:13;34.60;;;16.65;;
15996;SDS011;8103;51.340;12.326;2024-02-26T06:47:39;27.65;;;16.17;;
15996;SDS011;8103;51.340;12.326;2024-02-26T06:50:06;21.35;;;15.07;;
15996;SDS011;8103;51.340;12.326;2024-02-26T06:52:33;21.42;;;14.85;;
15996;SDS011;8103;51.340;12.326;2024-02-26T06:55:00;20.25;;;15.05;;
15996;SDS011;8103;51.340;12.326;2024-02-26T06:57:26;18.33;;;13.73;;
15996;SDS011;8103;51.340;12.326;2024-02-26T06:59:53;17.15;;;13.82;;
15996;SDS011;8103;51.340;12.326;2024-02-26T07:02:20;18.75;;;14.38;;
15996;SDS011;8103;51.340;12.326;2024-02-26T07:04:46;22.60;;;15.65;;
15996;SDS011;8103;51.340;12.326;2024-02-26T07:07:13;23.05;;;13.82;;
15996;SDS011;8103;51.340;12.326;2024-02-26T07:09:41;22.25;;;15.93;;
15996;SDS011;8103;51.340;12.326;2024-02-26T07:12:08;19.20;;;13.70;;
15996;SDS011;8103;51.340;12.326;2024-02-26T07:14:35;20.00;;;15.05;;
15996;SDS011;8103;51.340;12.326;2024-02-26T07:17:03;19.40;;;14.73;;
15996;SDS011;8103;51.340;12.326;2024-02-26T07:19:30;18.90;;;14.10;;
15996;SDS011;8103;51.340;12.326;2024-02-26T07:21:57;24.13;;;14.45;;
15996;SDS011;8103;51.340;12.326;2024-02-26T07:24:24;19.67;;;14.13;;
15996;SDS011;8103;51.340;12.326;2024-02-26T07:26:50;14.57;;;11.70;;
15996;SDS011;8103;51.340;12.326;2024-02-26T07:29:17;18.63;;;12.45;;
15996;SDS011;8103;51.340;12.326;2024-02-26T07:31:44;16.17;;;12.48;;
15996;SDS011;8103;51.340;12.326;2024-02-26T07:34:11;15.20;;;12.68;;
15996;SDS011;8103;51.340;12.326;2024-02-26T07:36:38;19.33;;;12.23;;
15996;SDS011;8103;51.340;12.326;2024-02-26T07:39:04;17.05;;;13.75;;
15996;SDS011;8103;51.340;12.326;2024-02-26T07:41:31;19.48;;;12.55;;
15996;SDS011;8103;51.340;12.326;2024-02-26T07:43:58;16.92;;;12.65;;
15996;SDS011;8103;51.340;12.326;2024-02-26T07:46:25;15.07;;;11.63;;
15996;SDS011;8103;51.340;12.326;2024-02-26T07:48:52;16.88;;;11.60;;
15996;SDS011;8103;51.340;12.326;2024-02-26T07:51:18;12.93;;;10.15;;
15996;SDS011;8103;51.340;12.326;2024-02-26T07:53:45;14.90;;;10.98;;
15996;SDS011;8103;51.340;12.326;2024-02-26T07:56:12;15.45;;;11.85;;
15996;SDS011;8103;51.340;12.326;2024-02-26T07:58:39;15.48;;;11.95;;
15996;SDS011;8103;51.340;12.326;2024-02-26T08:01:05;18.15;;;11.55;;
15996;SDS011;8103;51.340;12.326;2024-02-26T08:03:32;12.75;;;10.38;;
15996;SDS011;8103;51.340;12.326;2024-02-26T08:05:59;14.63;;;10.30;;
15996;SDS011;8103;51.340;12.326;2024-02-26T08:08:25;14.10;;;8.70;;
15996;SDS011;8103;51.340;12.326;2024-02-26T08:10:52;17.13;;;10.23;;
15996;SDS011;8103;51.340;12.326;2024-02-26T08:13:19;14.27;;;10.07;;
15996;SDS011;8103;51.340;12.326;2024-02-26T08:15:45;14.32;;;9.27;;
15996;SDS011;8103;51.340;12.326;2024-02-26T08:18:12;12.07;;;8.85;;
15996;SDS011;8103;51.340;12.326;2024-02-26T08:20:38;12.25;;;9.35;;
15996;SDS011;8103;51.340;12.326;2024-02-26T08:23:05;12.07;;;9.45;;
15996;SDS011;8103;51.340;12.326;2024-02-26T08:25:32;10.77;;;8.63;;
15996;SDS011;8103;51.340;12.326;2024-02-26T08:27:58;13.23;;;9.52;;
15996;SDS011;8103;51.340;12.326;2024-02-26T08:30:25;11.18;;;8.82;;
15996;SDS011;8103;51.340;12.326;2024-02-26T08:32:52;14.85;;;9.73;;
15996;SDS011;8103;51.340;12.326;2024-02-26T08:35:19;10.82;;;8.65;;
15996;SDS011;8103;51.340;12.326;2024-02-26T08:37:46;13.18;;;9.25;;
15996;SDS011;8103;51.340;12.326;2024-02-26T08:40:14;12.43;;;8.63;;
15996;SDS011;8103;51.340;12.326;2024-02-26T08:42:41;14.68;;;8.65;;
15996;SDS011;8103;51.340;12.326;2024-02-26T08:45:08;10.02;;;8.63;;
15996;SDS011;8103;51.340;12.326;2024-02-26T08:47:35;10.40;;;8.35;;
15996;SDS011;8103;51.340;12.326;2024-02-26T08:50:02;13.25;;;9.10;;
15996;SDS011;8103;51.340;12.326;2024-02-26T08:52:29;11.07;;;7.90;;
15996;SDS011;8103;51.340;12.326;2024-02-26T08:54:56;11.35;;;9.10;;
15996;SDS011;8103;51.340;12.326;2024-02-26T08:57:23;8.95;;;8.00;;
15996;SDS011;8103;51.340;12.326;2024-02-26T08:59:50;10.48;;;8.27;;
15996;SDS011;8103;51.340;12.326;2024-02-26T09:02:16;13.68;;;8.43;;
15996;SDS011;8103;51.340;12.326;2024-02-26T09:04:43;10.25;;;6.90;;
15996;SDS011;8103;51.340;12.326;2024-02-26T09:07:10;15.80;;;7.40;;
15996;SDS011;8103;51.340;12.326;2024-02-26T09:09:37;14.63;;;8.38;;
15996;SDS011;8103;51.340;12.326;2024-02-26T09:12:04;10.02;;;7.80;;
15996;SDS011;8103;51.340;12.326;2024-02-26T09:14:30;9.57;;;7.60;;
15996;SDS011;8103;51.340;12.326;2024-02-26T09:16:57;10.48;;;7.32;;
15996;SDS011;8103;51.340;12.326;2024-02-26T09:19:25;10.23;;;7.15;;
15996;SDS011;8103;51.340;12.326;2024-02-26T09:21:54;8.30;;;6.25;;
15996;SDS011;8103;51.340;12.326;2024-02-26T09:24:23;7.82;;;6.85;;
15996;SDS011;8103;51.340;12.326;2024-02-26T09:26:51;8.40;;;6.30;;
15996;SDS011;8103;51.340;12.326;2024-02-26T09:29:18;8.32;;;6.20;;
15996;SDS011;8103;51.340;12.326;2024-02-26T09:31:44;6.03;;;5.18;;
15996;SDS011;8103;51.340;12.326;2024-02-26T09:34:13;9.40;;;5.63;;
15996;SDS011;8103;51.340;12.326;2024-02-26T09:36:40;8.50;;;5.38;;
15996;SDS011;8103;51.340;12.326;2024-02-26T09:39:07;6.40;;;4.95;;
15996;SDS011;8103;51.340;12.326;2024-02-26T09:41:37;5.57;;;4.88;;
15996;SDS011;8103;51.340;12.326;2024-02-26T09:44:04;6.07;;;4.70;;
15996;SDS011;8103;51.340;12.326;2024-02-26T09:46:31;7.05;;;4.63;;
15996;SDS011;8103;51.340;12.326;2024-02-26T09:48:58;7.50;;;5.40;;
15996;SDS011;8103;51.340;12.326;2024-02-26T09:51:25;4.82;;;4.03;;
15996;SDS011;8103;51.340;12.326;2024-02-26T09:53:52;9.43;;;5.03;;
15996;SDS011;8103;51.340;12.326;2024-02-26T09:56:19;6.40;;;5.07;;
15996;SDS011;8103;51.340;12.326;2024-02-26T09:58:47;8.70;;;5.18;;
15996;SDS011;8103;51.340;12.326;2024-02-26T10:01:19;6.57;;;4.65;;
15996;SDS011;8103;51.340;12.326;2024-02-26T10:03:56;5.57;;;4.13;;
15996;SDS011;8103;51.340;12.326;2024-02-26T10:06:26;5.13;;;4.38;;
15996;SDS011;8103;51.340;12.326;2024-02-26T10:08:54;8.88;;;4.13;;
15996;SDS011;8103;51.340;12.326;2024-02-26T10:11:22;6.32;;;4.97;;
15996;SDS011;8103;51.340;12.326;2024-02-26T10:13:50;5.80;;;3.70;;
15996;SDS011;8103;51.340;12.326;2024-02-26T10:16:17;6.68;;;4.22;;
15996;SDS011;8103;51.340;12.326;2024-02-26T10:18:47;5.60;;;3.50;;
15996;SDS011;8103;51.340;12.326;2024-02-26T10:21:22;4.10;;;3.08;;
15996;SDS011;8103;51.340;12.326;2024-02-26T10:23:49;7.93;;;4.68;;
15996;SDS011;8103;51.340;12.326;2024-02-26T10:26:19;7.85;;;5.45;;
15996;SDS011;8103;51.340;12.326;2024-02-26T10:28:46;6.72;;;4.82;;
15996;SDS011;8103;51.340;12.326;2024-02-26T10:31:16;8.10;;;5.05;;
15996;SDS011;8103;51.340;12.326;2024-02-26T10:33:43;8.95;;;4.88;;
15996;SDS011;8103;51.340;12.326;2024-02-26T10:36:10;5.93;;;4.38;;
15996;SDS011;8103;51.340;12.326;2024-02-26T10:38:38;7.32;;;4.82;;
15996;SDS011;8103;51.340;12.326;2024-02-26T10:41:08;5.72;;;4.03;;
15996;SDS011;8103;51.340;12.326;2024-02-26T10:43:39;4.70;;;3.25;;
15996;SDS011;8103;51.340;12.326;2024-02-26T10:46:07;5.00;;;3.80;;
15996;SDS011;8103;51.340;12.326;2024-02-26T10:48:34;6.05;;;4.53;;
15996;SDS011;8103;51.340;12.326;2024-02-26T10:51:01;6.20;;;4.30;;
15996;SDS011;8103;51.340;12.326;2024-02-26T10:53:29;5.60;;;3.78;;
15996;SDS011;8103;51.340;12.326;2024-02-26T10:56:02;6.43;;;4.60;;
15996;SDS011;8103;51.340;12.326;2024-02-26T10:58:31;6.53;;;4.70;;
15996;SDS011;8103;51.340;12.326;2024-02-26T11:00:58;6.32;;;4.10;;
15996;SDS011;8103;51.340;12.326;2024-02-26T11:03:26;7.50;;;4.55;;
15996;SDS011;8103;51.340;12.326;2024-02-26T11:05:58;7.57;;;4.25;;
15996;SDS011;8103;51.340;12.326;2024-02-26T11:08:25;5.50;;;3.97;;
15996;SDS011;8103;51.340;12.326;2024-02-26T11:10:53;7.30;;;4.18;;
15996;SDS011;8103;51.340;12.326;2024-02-26T11:13:21;5.45;;;3.83;;
15996;SDS011;8103;51.340;12.326;2024-02-26T11:15:49;6.03;;;3.60;;
15996;SDS011;8103;51.340;12.326;2024-02-26T11:18:17;8.20;;;5.13;;
15996;SDS011;8103;51.340;12.326;2024-02-26T11:20:45;5.28;;;3.70;;
15996;SDS011;8103;51.340;12.326;2024-02-26T11:23:14;4.45;;;3.75;;
15996;SDS011;8103;51.340;12.326;2024-02-26T11:25:41;6.75;;;4.63;;
15996;SDS011;8103;51.340;12.326;2024-02-26T11:28:12;5.35;;;4.68;;
15996;SDS011;8103;51.340;12.326;2024-02-26T11:30:43;6.38;;;4.97;;
15996;SDS011;8103;51.340;12.326;2024-02-26T11:33:12;5.10;;;4.32;;
15996;SDS011;8103;51.340;12.326;2024-02-26T11:35:41;5.80;;;3.92;;
15996;SDS011;8103;51.340;12.326;2024-02-26T11:38:08;5.45;;;4.55;;
15996;SDS011;8103;51.340;12.326;2024-02-26T11:40:44;3.88;;;3.47;;
15996;SDS011;8103;51.340;12.326;2024-02-26T11:43:10;5.43;;;4.15;;
15996;SDS011;8103;51.340;12.326;2024-02-26T11:48:23;5.68;;;3.65;;
15996;SDS011;8103;51.340;12.326;2024-02-26T11:50:52;4.55;;;3.75;;
15996;SDS011;8103;51.340;12.326;2024-02-26T11:53:32;5.88;;;4.80;;
15996;SDS011;8103;51.340;12.326;2024-02-26T11:58:43;6.43;;;4.43;;
15996;SDS011;8103;51.340;12.326;2024-02-26T12:01:35;6.35;;;5.53;;
15996;SDS011;8103;51.340;12.326;2024-02-26T12:04:16;6.57;;;4.80;;
15996;SDS011;8103;51.340;12.326;2024-02-26T12:06:53;6.10;;;5.35;;
15996;SDS011;8103;51.340;12.326;2024-02-26T12:09:35;6.90;;;4.63;;
15996;SDS011;8103;51.340;12.326;2024-02-26T12:12:04;5.97;;;4.93;;
15996;SDS011;8103;51.340;12.326;2024-02-26T12:14:33;7.13;;;4.22;;
15996;SDS011;8103;51.340;12.326;2024-02-26T12:17:01;8.07;;;5.43;;
15996;SDS011;8103;51.340;12.326;2024-02-26T12:19:28;6.30;;;5.38;;
15996;SDS011;8103;51.340;12.326;2024-02-26T12:21:57;6.63;;;4.93;;
15996;SDS011;8103;51.340;12.326;2024-02-26T12:24:24;8.02;;;5.70;;
15996;SDS011;8103;51.340;12.326;2024-02-26T12:26:50;6.03;;;5.13;;
15996;SDS011;8103;51.340;12.326;2024-02-26T12:29:17;6.53;;;5.00;;
15996;SDS011;8103;51.340;12.326;2024-02-26T12:31:44;8.90;;;5.32;;
15996;SDS011;8103;51.340;12.326;2024-02-26T12:34:11;10.40;;;5.63;;
15996;SDS011;8103;51.340;12.326;2024-02-26T12:36:40;11.20;;;7.75;;
15996;SDS011;8103;51.340;12.326;2024-02-26T12:39:07;6.57;;;5.53;;
15996;SDS011;8103;51.340;12.326;2024-02-26T12:41:34;5.95;;;4.75;;
15996;SDS011;8103;51.340;12.326;2024-02-26T12:44:01;6.90;;;5.47;;
15996;SDS011;8103;51.340;12.326;2024-02-26T12:46:28;6.57;;;4.85;;
15996;SDS011;8103;51.340;12.326;2024-02-26T12:48:55;6.25;;;4.60;;
15996;SDS011;8103;51.340;12.326;2024-02-26T12:51:27;6.60;;;5.57;;
15996;SDS011;8103;51.340;12.326;2024-02-26T12:53:55;5.47;;;4.85;;
15996;SDS011;8103;51.340;12.326;2024-02-26T12:56:22;6.50;;;5.22;;
15996;SDS011;8103;51.340;12.326;2024-02-26T12:58:50;7.55;;;5.95;;
15996;SDS011;8103;51.340;12.326;2024-02-26T13:01:19;7.57;;;5.38;;
15996;SDS011;8103;51.340;12.326;2024-02-26T13:03:49;6.13;;;4.57;;
15996;SDS011;8103;51.340;12.326;2024-02-26T13:06:18;5.53;;;4.75;;
15996;SDS011;8103;51.340;12.326;2024-02-26T13:08:45;6.88;;;5.10;;
15996;SDS011;8103;51.340;12.326;2024-02-26T13:11:13;7.82;;;5.55;;
15996;SDS011;8103;51.340;12.326;2024-02-26T13:13:41;7.32;;;5.00;;
15996;SDS011;8103;51.340;12.326;2024-02-26T13:16:10;7.22;;;5.10;;
15996;SDS011;8103;51.340;12.326;2024-02-26T13:18:41;7.32;;;5.72;;
15996;SDS011;8103;51.340;12.326;2024-02-26T13:21:15;6.07;;;5.00;;
15996;SDS011;8103;51.340;12.326;2024-02-26T13:23:48;8.38;;;5.15;;
15996;SDS011;8103;51.340;12.326;2024-02-26T13:26:21;6.60;;;5.10;;
15996;SDS011;8103;51.340;12.326;2024-02-26T13:29:00;6.25;;;4.88;;
15996;SDS011;8103;51.340;12.326;2024-02-26T13:31:27;4.93;;;4.18;;
15996;SDS011;8103;51.340;12.326;2024-02-26T13:33:54;7.60;;;5.50;;
15996;SDS011;8103;51.340;12.326;2024-02-26T13:36:22;7.53;;;4.72;;
15996;SDS011;8103;51.340;12.326;2024-02-26T13:38:53;7.63;;;4.70;;
15996;SDS011;8103;51.340;12.326;2024-02-26T13:41:21;7.03;;;4.55;;
15996;SDS011;8103;51.340;12.326;2024-02-26T13:43:48;8.50;;;5.50;;
15996;SDS011;8103;51.340;12.326;2024-02-26T13:46:16;7.35;;;5.05;;
15996;SDS011;8103;51.340;12.326;2024-02-26T13:48:43;8.27;;;5.18;;
15996;SDS011;8103;51.340;12.326;2024-02-26T13:51:09;7.13;;;4.65;;
15996;SDS011;8103;51.340;12.326;2024-02-26T13:53:36;6.10;;;4.53;;
15996;SDS011;8103;51.340;12.326;2024-02-26T13:56:03;5.57;;;5.00;;
15996;SDS011;8103;51.340;12.326;2024-02-26T13:58:32;8.43;;;5.22;;
15996;SDS011;8103;51.340;12.326;2024-02-26T14:00:58;5.88;;;5.25;;
15996;SDS011;8103;51.340;12.326;2024-02-26T14:03:26;6.70;;;4.88;;
15996;SDS011;8103;51.340;12.326;2024-02-26T14:05:52;6.88;;;4.93;;
15996;SDS011;8103;51.340;12.326;2024-02-26T14:08:19;9.15;;;5.43;;
15996;SDS011;8103;51.340;12.326;2024-02-26T14:10:46;6.60;;;4.53;;
15996;SDS011;8103;51.340;12.326;2024-02-26T14:13:13;8.80;;;5.18;;
15996;SDS011;8103;51.340;12.326;2024-02-26T14:15:40;4.88;;;4.38;;
15996;SDS011;8103;51.340;12.326;2024-02-26T14:18:07;6.13;;;4.18;;
15996;SDS011;8103;51.340;12.326;2024-02-26T14:20:35;5.40;;;4.88;;
15996;SDS011;8103;51.340;12.326;2024-02-26T14:23:02;6.75;;;4.25;;
15996;SDS011;8103;51.340;12.326;2024-02-26T14:25:30;7.13;;;4.82;;
15996;SDS011;8103;51.340;12.326;2024-02-26T14:27:57;7.55;;;5.15;;
15996;SDS011;8103;51.340;12.326;2024-02-26T14:30:25;5.65;;;4.65;;
15996;SDS011;8103;51.340;12.326;2024-02-26T14:32:52;4.97;;;4.47;;
15996;SDS011;8103;51.340;12.326;2024-02-26T14:35:19;5.90;;;5.20;;
15996;SDS011;8103;51.340;12.326;2024-02-26T14:37:46;9.55;;;4.60;;
15996;SDS011;8103;51.340;12.326;2024-02-26T14:40:14;7.95;;;5.00;;